Twr-7 — TWR-7 — position and weather

sailwx.info

Track history (hours):
 
Tides and Currents Weather Stations Pressure Air Temp Water Temp Dewpoint Dewpoint Depression Visibility Wind Speed Wind Dir Waves Ship Positions

Twr-7

Last reported at 2017-Jan-27 20:27 UTC. Time now 2017-Feb-26 21:35 UTC.
Position N 48°15' W 122°54'.
Warning: this ship's position is 30 days out of date.

; draft 1.5 m.

Type: Military. MMSI: 369970258.

Date/timePositionNaut miles runAvg speedWind from/ knotsBaromVisibWave heightAir tempDewpointWater temp
2017-Jan-27 20:27N 48°15' W 122°54'1516.4
2017-Jan-27 19:33N 48°27' W 123°07'2118.4
2017-Jan-27 18:23N 48°46' W 123°19'1517.7
2017-Jan-27 17:33N 48°58' W 123°34'1615.7
2017-Jan-27 16:32N 49°09' W 123°51'1212.7
2017-Jan-27 15:33N 49°16' W 124°07'6 0.3
2017-Jan-26 17:34N 49°17' W 123°59'6 5.8
2017-Jan-26 16:34N 49°16' W 124°07'1 1.3
2017-Jan-26 15:33N 49°16' W 124°09'  
2017-Jan-24 00:33N 49°16' W 124°04'1312.4
2017-Jan-23 23:33N 49°08' W 123°49'1716.9
2017-Jan-23 22:33N 48°56' W 123°31'1816.3
2017-Jan-23 21:26N 48°41' W 123°15'1516.9
2017-Jan-23 20:33N 48°27' W 123°06'4016.9
2017-Jan-23 18:11N 47°53' W 122°36'1114.3
2017-Jan-23 17:27N 47°44' W 122°45'0 0.4
2017-Jan-23 16:30N 47°44' W 122°45'0 0.3
2017-Jan-23 15:33N 47°44' W 122°44'  
2017-Jan-20 22:27N 47°48' W 122°42'4013.9
2017-Jan-20 19:34N 48°25' W 123°05'1917.1
2017-Jan-20 18:26N 48°43' W 123°17'1416.3
2017-Jan-20 17:34N 48°54' W 123°29'1817.0
2017-Jan-20 16:30N 49°07' W 123°48'1212.4
2017-Jan-20 15:33N 49°15' W 124°01'  
Track history (hours):
 
Tides and Currents Weather Stations Pressure Air Temp Water Temp Dewpoint Dewpoint Depression Visibility Wind Speed Wind Dir Waves Ship Positions

Twr-7

Last reported at 2017-Jan-27 20:27 UTC. Time now 2017-Feb-26 21:35 UTC.
Position N 48°15' W 122°54'.
Warning: this ship's position is 30 days out of date.

; draft 1.5 m.

Type: Military. MMSI: 369970258.

Date/timePositionNaut miles runAvg speedWind from/ knotsBaromVisibWave heightAir tempDewpointWater temp
2017-Jan-27 20:27N 48°15' W 122°54'1516.4
2017-Jan-27 19:33N 48°27' W 123°07'2118.4
2017-Jan-27 18:23N 48°46' W 123°19'1517.7
2017-Jan-27 17:33N 48°58' W 123°34'1615.7
2017-Jan-27 16:32N 49°09' W 123°51'1212.7
2017-Jan-27 15:33N 49°16' W 124°07'6 0.3
2017-Jan-26 17:34N 49°17' W 123°59'6 5.8
2017-Jan-26 16:34N 49°16' W 124°07'1 1.3
2017-Jan-26 15:33N 49°16' W 124°09'  
2017-Jan-24 00:33N 49°16' W 124°04'1312.4
2017-Jan-23 23:33N 49°08' W 123°49'1716.9
2017-Jan-23 22:33N 48°56' W 123°31'1816.3
2017-Jan-23 21:26N 48°41' W 123°15'1516.9
2017-Jan-23 20:33N 48°27' W 123°06'4016.9
2017-Jan-23 18:11N 47°53' W 122°36'1114.3
2017-Jan-23 17:27N 47°44' W 122°45'0 0.4
2017-Jan-23 16:30N 47°44' W 122°45'0 0.3
2017-Jan-23 15:33N 47°44' W 122°44'  
2017-Jan-20 22:27N 47°48' W 122°42'4013.9
2017-Jan-20 19:34N 48°25' W 123°05'1917.1
2017-Jan-20 18:26N 48°43' W 123°17'1416.3
2017-Jan-20 17:34N 48°54' W 123°29'1817.0
2017-Jan-20 16:30N 49°07' W 123°48'1212.4
2017-Jan-20 15:33N 49°15' W 124°01'  

Dump ship's entire track history